createdAt,value
2023-02-18T00:00:09.673Z,8.93
2023-02-18T00:02:39.439Z,10.32
2023-02-18T00:05:07.786Z,8.25
2023-02-18T00:07:36.298Z,5.10
2023-02-18T00:10:12.061Z,9.00
2023-02-18T00:12:43.240Z,7.00
2023-02-18T00:15:11.641Z,9.45
2023-02-18T00:17:41.352Z,11.98
2023-02-18T00:20:10.137Z,8.48
2023-02-18T00:22:38.460Z,7.10
2023-02-18T00:25:07.329Z,5.55
2023-02-18T00:27:37.812Z,6.13
2023-02-18T00:30:07.505Z,6.82
2023-02-18T00:32:36.008Z,9.63
2023-02-18T00:35:06.004Z,7.15
2023-02-18T00:37:35.441Z,7.07
2023-02-18T00:40:06.694Z,10.48
2023-02-18T00:42:37.830Z,10.15
2023-02-18T00:45:06.771Z,13.38
2023-02-18T00:47:35.077Z,8.55
2023-02-18T00:50:05.250Z,8.65
2023-02-18T00:52:33.655Z,6.80
2023-02-18T00:55:02.003Z,7.80
2023-02-18T00:57:33.138Z,8.63
2023-02-18T01:00:01.503Z,6.93
2023-02-18T01:02:29.871Z,6.80
2023-02-18T01:05:00.233Z,6.53
2023-02-18T01:07:29.941Z,11.20
2023-02-18T01:09:59.623Z,6.72
2023-02-18T01:12:35.569Z,8.23
2023-02-18T01:15:04.347Z,8.02
2023-02-18T01:17:32.736Z,9.48
2023-02-18T01:20:01.150Z,9.10
2023-02-18T01:22:34.922Z,7.63
2023-02-18T01:25:03.269Z,4.85
2023-02-18T01:27:37.587Z,5.43
2023-02-18T01:30:09.486Z,6.15
2023-02-18T01:32:37.821Z,4.38
2023-02-18T01:35:06.880Z,7.15
2023-02-18T01:37:36.658Z,4.88
2023-02-18T01:40:05.249Z,6.57
2023-02-18T01:42:33.683Z,6.03
2023-02-18T01:45:38.426Z,5.13
2023-02-18T01:48:08.534Z,8.45
2023-02-18T01:50:38.099Z,7.78
2023-02-18T01:53:09.705Z,6.07
2023-02-18T01:55:38.019Z,7.55
2023-02-18T01:58:06.317Z,6.07
2023-02-18T02:00:37.687Z,5.35
2023-02-18T02:03:05.999Z,10.35
2023-02-18T02:05:34.912Z,4.65
2023-02-18T02:08:03.374Z,5.75
2023-02-18T02:10:39.566Z,4.50
2023-02-18T02:13:09.396Z,8.75
2023-02-18T02:15:41.576Z,7.15
2023-02-18T02:18:25.191Z,4.53
2023-02-18T02:21:15.785Z,7.32
2023-02-18T02:24:10.791Z,4.55
2023-02-18T02:27:03.669Z,6.95
2023-02-18T02:29:59.387Z,10.35
2023-02-18T02:33:06.535Z,5.82
2023-02-18T02:35:36.304Z,6.55
2023-02-18T02:38:05.947Z,7.15
2023-02-18T02:40:53.881Z,3.88
2023-02-18T02:43:26.041Z,6.30
2023-02-18T02:45:56.995Z,6.18
2023-02-18T02:48:30.851Z,3.63
2023-02-18T02:51:05.158Z,3.53
2023-02-18T02:53:35.001Z,3.17
2023-02-18T02:56:03.315Z,4.18
2023-02-18T02:58:31.872Z,3.20
2023-02-18T03:01:22.887Z,4.20
2023-02-18T03:04:13.151Z,8.00
2023-02-18T03:07:05.686Z,3.55
2023-02-18T03:09:39.463Z,4.55
2023-02-18T03:12:08.443Z,4.43
2023-02-18T03:14:41.776Z,5.07
2023-02-18T03:17:12.796Z,4.07
2023-02-18T03:19:43.080Z,4.63
2023-02-18T03:22:13.642Z,2.97
2023-02-18T03:24:42.963Z,2.85
2023-02-18T03:27:12.885Z,3.67
2023-02-18T03:29:41.472Z,4.03
2023-02-18T03:32:09.888Z,2.53
2023-02-18T03:34:39.643Z,3.05
2023-02-18T03:37:08.000Z,2.97
2023-02-18T03:39:38.180Z,3.72
2023-02-18T03:42:09.314Z,5.95
2023-02-18T03:44:37.645Z,4.35
2023-02-18T03:47:06.068Z,2.30
2023-02-18T03:49:34.391Z,2.00
2023-02-18T03:52:02.715Z,2.85
2023-02-18T03:54:34.129Z,4.70
2023-02-18T03:57:03.859Z,3.53
2023-02-18T03:59:32.216Z,2.63
2023-02-18T04:02:00.863Z,5.30
2023-02-18T04:04:29.442Z,3.00
2023-02-18T04:06:57.853Z,2.58
2023-02-18T04:09:26.592Z,2.97
2023-02-18T04:11:54.957Z,3.33
2023-02-18T04:14:24.750Z,3.42
2023-02-18T04:16:53.083Z,3.55
2023-02-18T04:19:21.474Z,4.93
2023-02-18T04:21:49.797Z,4.68
2023-02-18T04:24:18.169Z,3.97
2023-02-18T04:26:46.538Z,2.20
2023-02-18T04:29:14.865Z,2.60
2023-02-18T04:31:44.650Z,4.35
2023-02-18T04:34:12.991Z,3.20
2023-02-18T04:36:41.328Z,5.75
2023-02-18T04:39:12.508Z,9.73
2023-02-18T04:41:40.824Z,4.68
2023-02-18T04:44:09.123Z,4.07
2023-02-18T04:46:37.477Z,4.60
2023-02-18T04:49:10.166Z,5.68
2023-02-18T04:51:38.639Z,4.05
2023-02-18T04:54:07.006Z,6.38
2023-02-18T04:56:35.363Z,6.07
2023-02-18T04:59:03.720Z,4.78
2023-02-18T05:01:32.058Z,2.95
2023-02-18T05:04:00.442Z,3.70
2023-02-18T05:06:30.122Z,5.80
2023-02-18T05:08:58.481Z,4.75
2023-02-18T05:11:26.796Z,6.68
2023-02-18T05:13:55.168Z,3.38
2023-02-18T05:16:25.101Z,10.15
2023-02-18T05:18:53.483Z,5.22
2023-02-18T05:21:21.906Z,7.50
2023-02-18T05:23:51.593Z,6.47
2023-02-18T05:26:19.925Z,6.25
2023-02-18T05:28:48.305Z,5.05
2023-02-18T05:31:16.720Z,3.35
2023-02-18T05:33:45.054Z,3.25
2023-02-18T05:36:13.418Z,5.53
2023-02-18T05:38:41.719Z,6.10
2023-02-18T05:41:11.363Z,4.85
2023-02-18T05:43:53.655Z,3.85
2023-02-18T05:46:22.069Z,3.63
2023-02-18T05:48:50.409Z,6.25
2023-02-18T05:51:18.767Z,5.05
2023-02-18T05:53:47.046Z,8.82
2023-02-18T05:56:16.763Z,5.60
2023-02-18T05:58:45.505Z,3.10
2023-02-18T06:01:13.824Z,8.95
2023-02-18T06:03:42.175Z,11.70
2023-02-18T06:06:11.566Z,7.25
2023-02-18T06:08:41.366Z,7.60
2023-02-18T06:11:09.800Z,5.53
2023-02-18T06:13:39.504Z,7.30
2023-02-18T06:16:08.350Z,8.43
2023-02-18T06:18:36.878Z,6.82
2023-02-18T06:21:05.339Z,10.25
2023-02-18T06:23:33.713Z,7.85
2023-02-18T06:26:02.110Z,14.90
2023-02-18T06:28:30.433Z,6.20
2023-02-18T06:31:00.298Z,7.55
2023-02-18T06:33:28.703Z,9.32
2023-02-18T06:35:57.361Z,5.05
2023-02-18T06:38:25.684Z,6.95
2023-02-18T06:40:54.058Z,11.07
2023-02-18T06:43:22.591Z,9.93
2023-02-18T06:45:50.939Z,8.07
2023-02-18T06:48:20.608Z,9.40
2023-02-18T06:50:51.857Z,10.30
2023-02-18T06:53:20.207Z,8.50
2023-02-18T06:55:48.547Z,14.68
2023-02-18T06:58:17.693Z,9.57
2023-02-18T07:00:46.313Z,9.00
2023-02-18T07:03:14.980Z,10.18
2023-02-18T07:05:44.705Z,12.45
2023-02-18T07:08:15.942Z,9.30
2023-02-18T07:10:44.378Z,8.77
2023-02-18T07:13:19.905Z,7.45
2023-02-18T07:15:49.540Z,8.93
2023-02-18T07:18:17.995Z,10.63
2023-02-18T07:20:54.930Z,9.57
2023-02-18T07:23:23.320Z,6.35
2023-02-18T07:25:51.601Z,5.30
2023-02-18T07:28:20.367Z,14.50
2023-02-18T07:30:48.716Z,6.57
2023-02-18T07:33:19.283Z,8.98
2023-02-18T07:35:53.791Z,14.27
2023-02-18T07:38:22.325Z,8.35
2023-02-18T07:40:50.759Z,12.65
2023-02-18T07:43:19.210Z,6.95
2023-02-18T07:45:52.317Z,19.35
2023-02-18T07:48:20.718Z,13.65
2023-02-18T07:50:50.438Z,14.82
2023-02-18T07:53:18.801Z,12.73
2023-02-18T07:55:53.136Z,14.98
2023-02-18T07:58:22.486Z,12.32
2023-02-18T08:00:50.888Z,12.30
2023-02-18T08:03:19.445Z,11.70
2023-02-18T08:05:50.602Z,9.48
2023-02-18T08:08:20.476Z,13.35
2023-02-18T08:10:49.184Z,7.47
2023-02-18T08:13:17.484Z,8.48
2023-02-18T08:15:48.268Z,8.15
2023-02-18T08:18:17.715Z,7.95
2023-02-18T08:20:47.148Z,8.60
2023-02-18T08:23:22.213Z,10.77
2023-02-18T08:25:56.999Z,8.32
2023-02-18T08:28:25.446Z,12.38
2023-02-18T08:30:54.589Z,15.00
2023-02-18T08:33:23.276Z,8.95
2023-02-18T08:35:52.438Z,10.18
2023-02-18T08:38:22.214Z,8.02
2023-02-18T08:40:50.616Z,12.05
2023-02-18T08:43:19.180Z,7.32
2023-02-18T08:45:47.568Z,11.07
2023-02-18T08:48:20.580Z,20.33
2023-02-18T08:50:49.201Z,21.33
2023-02-18T08:53:19.019Z,24.27
2023-02-18T08:55:48.806Z,16.20
2023-02-18T08:58:17.528Z,9.80
2023-02-18T09:00:45.991Z,13.05
2023-02-18T09:03:14.764Z,15.98
2023-02-18T09:05:43.251Z,8.80
2023-02-18T09:08:11.628Z,11.98
2023-02-18T09:10:40.451Z,9.20
2023-02-18T09:13:10.154Z,13.02
2023-02-18T09:15:38.672Z,20.23
2023-02-18T09:18:07.147Z,16.02
2023-02-18T09:20:35.560Z,24.33
2023-02-18T09:23:04.212Z,31.17
2023-02-18T09:25:32.701Z,36.35
2023-02-18T09:28:02.774Z,41.95
2023-02-18T09:30:32.530Z,26.20
2023-02-18T09:33:01.043Z,38.10
2023-02-18T09:35:31.824Z,30.58
2023-02-18T09:38:00.163Z,27.83
2023-02-18T09:40:32.828Z,37.60
2023-02-18T09:43:01.136Z,28.80
2023-02-18T09:45:29.524Z,29.75
2023-02-18T09:47:59.205Z,27.60
2023-02-18T09:50:28.708Z,26.13
2023-02-18T09:52:57.772Z,28.38
2023-02-18T09:55:28.511Z,24.17
2023-02-18T09:58:00.968Z,18.77
2023-02-18T10:00:33.217Z,20.58
2023-02-18T10:03:04.699Z,25.13
2023-02-18T10:05:33.407Z,17.20
2023-02-18T10:08:03.028Z,22.15
2023-02-18T10:10:37.998Z,16.08
2023-02-18T10:13:07.943Z,11.68
2023-02-18T10:15:36.317Z,13.88
2023-02-18T10:18:06.200Z,12.38
2023-02-18T10:20:34.901Z,13.25
2023-02-18T10:23:15.331Z,16.70
2023-02-18T10:25:45.238Z,15.75
2023-02-18T10:28:13.749Z,13.88
2023-02-18T10:30:45.886Z,11.77
2023-02-18T10:33:28.262Z,13.65
2023-02-18T10:35:58.734Z,15.43
2023-02-18T10:38:31.357Z,12.00
2023-02-18T10:41:01.944Z,14.95
2023-02-18T10:43:40.143Z,14.50
2023-02-18T10:46:15.471Z,11.75
2023-02-18T10:49:02.601Z,11.10
2023-02-18T10:51:33.260Z,10.52
2023-02-18T10:54:04.674Z,11.90
2023-02-18T10:56:38.619Z,9.70
2023-02-18T10:59:12.852Z,10.07
2023-02-18T11:01:43.844Z,16.27
2023-02-18T11:04:17.537Z,11.45
2023-02-18T11:06:52.811Z,10.57
2023-02-18T11:09:29.948Z,12.75
2023-02-18T11:14:48.826Z,12.40
2023-02-18T11:17:21.927Z,19.23
2023-02-18T11:19:56.131Z,8.13
2023-02-18T11:22:25.533Z,10.82
2023-02-18T11:24:57.534Z,9.80
2023-02-18T11:27:28.695Z,12.57
2023-02-18T11:30:01.035Z,6.43
2023-02-18T11:32:29.698Z,9.70
2023-02-18T11:34:59.381Z,8.32
2023-02-18T11:37:27.733Z,9.05
2023-02-18T11:39:56.391Z,7.22
2023-02-18T11:42:26.268Z,9.15
2023-02-18T11:45:05.135Z,7.78
2023-02-18T11:47:36.994Z,12.45
2023-02-18T11:50:21.932Z,14.25
2023-02-18T11:52:56.671Z,8.43
2023-02-18T11:55:30.978Z,11.93
2023-02-18T11:58:04.101Z,9.38
2023-02-18T12:00:39.067Z,6.70
2023-02-18T12:03:09.699Z,12.35
2023-02-18T12:05:39.409Z,11.13
2023-02-18T12:08:13.994Z,7.60
2023-02-18T12:10:43.511Z,6.95
2023-02-18T12:13:20.479Z,10.80
2023-02-18T12:15:55.145Z,8.02
2023-02-18T12:18:40.426Z,10.48
2023-02-18T12:21:20.870Z,6.32
2023-02-18T12:23:56.952Z,7.53
2023-02-18T12:26:27.714Z,6.47
2023-02-18T12:29:14.909Z,6.63
2023-02-18T12:32:01.209Z,5.15
2023-02-18T12:34:38.068Z,14.27
2023-02-18T12:37:14.544Z,8.68
2023-02-18T12:39:57.721Z,12.95
2023-02-18T12:42:44.645Z,7.68
2023-02-18T12:45:36.713Z,7.70
2023-02-18T12:48:23.062Z,8.93
2023-02-18T12:51:01.117Z,9.88
2023-02-18T12:53:40.844Z,9.80
2023-02-18T12:56:22.595Z,8.30
2023-02-18T12:58:55.343Z,6.03
2023-02-18T13:01:36.599Z,8.73
2023-02-18T13:04:29.056Z,8.68
2023-02-18T13:07:11.943Z,11.57
2023-02-18T13:09:48.820Z,9.38
2023-02-18T13:12:25.103Z,6.75
2023-02-18T13:14:58.342Z,11.38
2023-02-18T13:17:30.649Z,6.63
2023-02-18T13:20:00.739Z,7.95
2023-02-18T13:22:30.184Z,5.70
2023-02-18T13:25:00.047Z,5.20
2023-02-18T13:27:31.023Z,7.13
2023-02-18T13:30:05.726Z,7.93
2023-02-18T13:32:36.739Z,7.30
2023-02-18T13:35:08.884Z,6.38
2023-02-18T13:37:39.519Z,7.65
2023-02-18T13:40:14.617Z,5.88
2023-02-18T13:42:45.785Z,7.15
2023-02-18T13:45:32.395Z,7.28
2023-02-18T13:48:00.812Z,5.68
2023-02-18T13:50:33.862Z,8.20
2023-02-18T13:53:23.908Z,3.72
2023-02-18T13:55:56.158Z,7.07
2023-02-18T13:58:26.902Z,3.65
2023-02-18T14:00:59.047Z,5.53
2023-02-18T14:03:36.148Z,9.73
2023-02-18T14:08:37.047Z,5.72
2023-02-18T14:11:37.879Z,4.00
2023-02-18T14:14:16.590Z,6.93
2023-02-18T14:17:25.856Z,6.55
2023-02-18T14:19:54.836Z,8.65
2023-02-18T14:22:28.755Z,7.53
2023-02-18T14:24:58.295Z,8.32
2023-02-18T14:27:27.976Z,8.05
2023-02-18T14:29:56.286Z,10.48
2023-02-18T14:32:24.752Z,9.00
2023-02-18T14:35:14.559Z,7.50
2023-02-18T14:38:16.543Z,9.30
2023-02-18T14:41:02.213Z,8.43
2023-02-18T14:43:41.073Z,8.68
2023-02-18T14:46:13.825Z,13.82
2023-02-18T14:49:03.830Z,8.10
2023-02-18T14:51:33.060Z,9.27
2023-02-18T14:54:05.331Z,9.68
2023-02-18T14:56:33.789Z,9.38
2023-02-18T14:59:03.547Z,9.73
2023-02-18T15:01:32.937Z,9.77
2023-02-18T15:04:01.953Z,13.07
2023-02-18T15:06:31.540Z,8.55
2023-02-18T15:09:00.906Z,9.82
2023-02-18T15:11:36.412Z,9.52
2023-02-18T15:14:09.851Z,14.63
2023-02-18T15:16:38.209Z,10.63
2023-02-18T15:19:07.223Z,16.58
2023-02-18T15:21:38.375Z,10.90
2023-02-18T15:24:09.532Z,10.88
2023-02-18T15:26:44.555Z,14.98
2023-02-18T15:29:17.194Z,11.90
2023-02-18T15:31:45.620Z,13.20
2023-02-18T15:34:34.803Z,12.00
2023-02-18T15:37:04.001Z,12.18
2023-02-18T15:39:33.396Z,10.15
2023-02-18T15:42:04.037Z,9.75
2023-02-18T15:44:34.014Z,10.93
2023-02-18T15:47:03.001Z,9.05
2023-02-18T15:49:31.928Z,10.82
2023-02-18T15:52:01.250Z,16.70
2023-02-18T15:54:29.656Z,13.15
2023-02-18T15:57:01.563Z,9.02
2023-02-18T15:59:30.690Z,9.27
2023-02-18T16:02:19.582Z,11.15
2023-02-18T16:04:59.179Z,13.63
2023-02-18T16:07:28.728Z,11.75
2023-02-18T16:10:11.185Z,9.98
2023-02-18T16:12:40.045Z,11.75
2023-02-18T16:15:11.448Z,8.85
2023-02-18T16:17:44.456Z,12.50
2023-02-18T16:20:18.117Z,11.00
2023-02-18T16:22:47.579Z,15.05
2023-02-18T16:25:17.589Z,11.23
2023-02-18T16:27:53.378Z,10.93
2023-02-18T16:30:22.795Z,13.07
2023-02-18T16:32:52.955Z,17.77
2023-02-18T16:35:21.387Z,11.82
2023-02-18T16:37:50.331Z,12.48
2023-02-18T16:40:24.528Z,12.07
2023-02-18T16:42:52.889Z,14.10
2023-02-18T16:45:21.515Z,10.18
2023-02-18T16:47:54.379Z,13.32
2023-02-18T16:50:22.969Z,16.58
2023-02-18T16:52:54.422Z,12.77
2023-02-18T16:55:23.868Z,10.95
2023-02-18T16:57:52.197Z,10.23
2023-02-18T17:00:21.126Z,11.75
2023-02-18T17:02:50.611Z,12.95
2023-02-18T17:05:28.388Z,15.82
2023-02-18T17:07:56.727Z,17.80
2023-02-18T17:10:25.160Z,21.20
2023-02-18T17:12:53.514Z,28.45
2023-02-18T17:15:29.984Z,20.15
2023-02-18T17:17:59.245Z,22.90
2023-02-18T17:20:29.136Z,24.10
2023-02-18T17:22:58.471Z,14.48
2023-02-18T17:25:30.685Z,21.23
2023-02-18T17:27:59.056Z,18.40
2023-02-18T17:30:27.459Z,18.00
2023-02-18T17:32:55.892Z,17.73
2023-02-18T17:35:24.574Z,18.40
2023-02-18T17:37:54.373Z,19.77
2023-02-18T17:40:24.163Z,14.40
2023-02-18T17:42:52.521Z,15.27
2023-02-18T17:45:22.570Z,19.30
2023-02-18T17:47:50.917Z,11.23
2023-02-18T17:50:19.550Z,18.70
2023-02-18T17:52:47.919Z,16.15
2023-02-18T17:55:22.225Z,22.58
2023-02-18T17:57:50.920Z,23.83
2023-02-18T18:00:21.184Z,19.60
2023-02-18T18:02:49.503Z,23.63
2023-02-18T18:05:19.481Z,18.70
2023-02-18T18:07:48.808Z,14.75
2023-02-18T18:10:17.375Z,17.30
2023-02-18T18:12:47.148Z,16.17
2023-02-18T18:15:23.674Z,15.20
2023-02-18T18:17:52.135Z,18.63
2023-02-18T18:20:20.543Z,21.55
2023-02-18T18:22:48.948Z,13.73
2023-02-18T18:25:19.489Z,16.20
2023-02-18T18:27:50.454Z,18.02
2023-02-18T18:30:19.650Z,15.50
2023-02-18T18:32:47.984Z,11.38
2023-02-18T18:35:24.688Z,16.23
2023-02-18T18:37:53.243Z,20.25
2023-02-18T18:40:22.388Z,11.95
2023-02-18T18:42:52.169Z,15.95
2023-02-18T18:45:22.442Z,13.07
2023-02-18T18:47:51.113Z,12.10
2023-02-18T18:50:19.857Z,12.80
2023-02-18T18:52:48.682Z,15.35
2023-02-18T18:55:21.857Z,16.20
2023-02-18T18:57:51.570Z,19.02
2023-02-18T19:00:21.051Z,14.02
2023-02-18T19:02:49.363Z,15.25
2023-02-18T19:05:23.445Z,11.63
2023-02-18T19:07:51.843Z,18.77
2023-02-18T19:10:20.212Z,11.50
2023-02-18T19:12:48.750Z,10.98
2023-02-18T19:15:20.518Z,13.45
2023-02-18T19:17:50.249Z,15.70
2023-02-18T19:20:19.809Z,13.60
2023-02-18T19:22:48.129Z,16.13
2023-02-18T19:25:16.635Z,15.25
2023-02-18T19:27:45.456Z,15.27
2023-02-18T19:30:15.583Z,16.40
2023-02-18T19:32:45.352Z,16.23
2023-02-18T19:35:13.740Z,18.13
2023-02-18T19:37:42.127Z,14.20
2023-02-18T19:40:12.523Z,17.10
2023-02-18T19:42:40.880Z,21.20
2023-02-18T19:45:10.160Z,13.27
2023-02-18T19:47:38.603Z,12.38
2023-02-18T19:50:10.002Z,14.88
2023-02-18T19:52:38.335Z,22.08
2023-02-18T19:55:07.636Z,22.45
2023-02-18T19:57:36.044Z,18.67
2023-02-18T20:00:05.432Z,13.25
2023-02-18T20:02:33.874Z,10.63
2023-02-18T20:05:02.419Z,12.82
2023-02-18T20:07:32.254Z,14.82
2023-02-18T20:10:00.553Z,9.73
2023-02-18T20:12:29.151Z,7.65
2023-02-18T20:14:57.493Z,10.02
2023-02-18T20:17:25.890Z,10.05
2023-02-18T20:19:54.221Z,10.75
2023-02-18T20:22:22.874Z,9.30
2023-02-18T20:24:52.686Z,15.35
2023-02-18T20:27:21.022Z,12.30
2023-02-18T20:29:51.538Z,12.68
2023-02-18T20:32:20.149Z,16.95
2023-02-18T20:34:48.791Z,18.13
2023-02-18T20:37:17.104Z,12.97
2023-02-18T20:39:45.545Z,17.25
2023-02-18T20:42:16.849Z,16.70
2023-02-18T20:44:45.458Z,16.92
2023-02-18T20:47:14.030Z,13.57
2023-02-18T20:49:42.770Z,17.75
2023-02-18T20:52:11.105Z,14.38
2023-02-18T20:54:40.078Z,15.75
2023-02-18T20:57:09.018Z,15.50
2023-02-18T20:59:38.873Z,18.20
2023-02-18T21:02:11.296Z,12.25
2023-02-18T21:04:39.631Z,17.70
2023-02-18T21:07:10.656Z,22.85
2023-02-18T21:09:39.157Z,18.42
2023-02-18T21:12:09.677Z,16.77
2023-02-18T21:14:39.624Z,19.58
2023-02-18T21:17:09.597Z,21.10
2023-02-18T21:19:38.064Z,18.35
2023-02-18T21:22:06.660Z,19.55
2023-02-18T21:24:36.814Z,14.43
2023-02-18T21:27:05.235Z,15.95
2023-02-18T21:29:34.390Z,17.42
2023-02-18T21:32:06.777Z,18.15
2023-02-18T21:34:35.156Z,17.75
2023-02-18T21:37:03.482Z,14.82
2023-02-18T21:39:35.080Z,21.63
2023-02-18T21:42:10.583Z,19.15
2023-02-18T21:44:43.098Z,19.60
2023-02-18T21:47:17.990Z,15.15
2023-02-18T21:49:46.267Z,18.58
2023-02-18T21:52:14.598Z,14.57
2023-02-18T21:54:44.690Z,17.50
2023-02-18T21:57:14.156Z,18.52
2023-02-18T21:59:42.678Z,15.68
2023-02-18T22:02:16.935Z,18.80
2023-02-18T22:04:45.598Z,16.33
2023-02-18T22:07:14.210Z,18.83
2023-02-18T22:09:42.647Z,16.00
2023-02-18T22:12:11.667Z,12.48
2023-02-18T22:14:40.145Z,18.30
2023-02-18T22:17:08.570Z,11.15
2023-02-18T22:19:38.319Z,11.38
2023-02-18T22:22:06.672Z,19.65
2023-02-18T22:24:35.100Z,16.35
2023-02-18T22:27:03.478Z,14.43
2023-02-18T22:29:35.015Z,17.27
2023-02-18T22:32:03.392Z,12.80
2023-02-18T22:34:31.732Z,9.60
2023-02-18T22:37:01.399Z,15.88
2023-02-18T22:39:29.848Z,11.90
2023-02-18T22:41:58.219Z,11.45
2023-02-18T22:44:27.330Z,10.65
2023-02-18T22:46:55.911Z,8.02
2023-02-18T22:49:24.418Z,11.32
2023-02-18T22:51:53.781Z,8.55
2023-02-18T22:54:23.578Z,21.15
2023-02-18T22:56:51.946Z,20.08
2023-02-18T22:59:20.378Z,19.27
2023-02-18T23:01:49.716Z,9.63
2023-02-18T23:04:19.123Z,11.75
2023-02-18T23:06:47.654Z,9.77
2023-02-18T23:09:16.946Z,13.45
2023-02-18T23:11:46.657Z,17.80
2023-02-18T23:14:21.555Z,7.35
2023-02-18T23:17:08.594Z,6.15
2023-02-18T23:19:37.189Z,7.28
2023-02-18T23:22:05.564Z,11.07
2023-02-18T23:24:34.336Z,9.18
2023-02-18T23:27:04.256Z,9.05
2023-02-18T23:29:32.579Z,9.65
2023-02-18T23:32:01.028Z,5.18
2023-02-18T23:34:29.584Z,8.85
2023-02-18T23:36:58.306Z,8.30
2023-02-18T23:39:26.699Z,10.00
2023-02-18T23:41:55.058Z,8.77
2023-02-18T23:44:25.451Z,10.23
2023-02-18T23:46:53.827Z,9.45
2023-02-18T23:49:23.132Z,7.43
2023-02-18T23:51:51.648Z,11.38
2023-02-18T23:54:19.967Z,6.30
2023-02-18T23:56:48.310Z,9.43
2023-02-18T23:59:16.660Z,10.57
